Time;durP1;ratioP1;P1;durP2;ratioP2;P2;SDS_P1;SDS_P2;PMS_P1;PMS_P2;Temp;Humidity;BMP_temperature;BMP_pressure;BME280_temperature;BME280_humidity;BME280_pressure;Samples;Min_cycle;Max_cycle;Signal;HPM_P1;HPM_P2
2023/09/16 00:00:24;;;;;;;3.43;1.80;;;;;;;19.53;100.00;101702.19;2077446;28;20185;-65
2023/09/16 00:01:25;;;;;;;2.93;1.60;;;;;;;19.53;100.00;101704.19;2077549;28;20192;-65
2023/09/16 00:02:25;;;;;;;2.07;1.57;;;;;;;19.56;100.00;101706.88;2078919;28;20246;-65
2023/09/16 00:03:26;;;;;;;2.57;1.53;;;;;;;19.56;100.00;101706.09;2078037;28;20211;-65
2023/09/16 00:04:26;;;;;;;2.27;1.90;;;;;;;19.55;100.00;101701.72;2077630;28;20568;-65
2023/09/16 00:05:27;;;;;;;3.00;1.80;;;;;;;19.51;100.00;101703.91;2077854;28;20173;-65
2023/09/16 00:06:27;;;;;;;4.53;1.67;;;;;;;19.45;100.00;101703.72;2077784;28;20173;-65
2023/09/16 00:07:27;;;;;;;1.93;1.50;;;;;;;19.47;100.00;101711.69;2077487;28;20184;-65
2023/09/16 00:08:28;;;;;;;1.80;1.57;;;;;;;19.50;100.00;101705.91;2078165;28;20650;-65
2023/09/16 00:09:28;;;;;;;2.47;1.60;;;;;;;19.54;100.00;101708.59;2077627;28;20220;-65
2023/09/16 00:10:29;;;;;;;2.50;1.60;;;;;;;19.57;100.00;101711.25;2077668;28;20205;-64
2023/09/16 00:11:30;;;;;;;2.70;1.90;;;;;;;19.58;100.00;101714.81;2078027;28;20698;-64
2023/09/16 00:12:31;;;;;;;2.07;1.47;;;;;;;19.61;100.00;101711.88;2082714;28;20197;-64
2023/09/16 00:13:31;;;;;;;2.10;1.70;;;;;;;19.53;100.00;101695.75;2077969;28;20951;-65
2023/09/16 00:14:32;;;;;;;4.03;1.70;;;;;;;19.65;100.00;101717.34;2077407;28;20208;-65
2023/09/16 00:15:32;;;;;;;3.17;1.57;;;;;;;19.59;100.00;101699.53;2077775;28;20184;-65
2023/09/16 00:16:32;;;;;;;2.57;1.90;;;;;;;19.70;100.00;101717.47;2076708;28;20193;-65
2023/09/16 00:17:33;;;;;;;2.10;1.43;;;;;;;19.34;100.00;101668.91;2076857;28;20216;-65
2023/09/16 00:18:34;;;;;;;2.40;1.60;;;;;;;19.18;100.00;101657.94;2076631;28;20196;-65
2023/09/16 00:19:34;;;;;;;2.70;1.90;;;;;;;19.62;100.00;101724.69;2076917;28;20195;-64
2023/09/16 00:20:36;;;;;;;2.57;1.70;;;;;;;19.67;100.00;101731.69;2077638;28;20680;-64
2023/09/16 00:21:36;;;;;;;2.30;1.60;;;;;;;19.69;100.00;101729.19;2078007;28;20185;-64
2023/09/16 00:22:36;;;;;;;1.73;1.40;;;;;;;19.29;100.00;101666.72;2077802;28;20439;-64
2023/09/16 00:23:38;;;;;;;4.33;1.63;;;;;;;19.76;100.00;101729.66;2078340;28;20176;-64
2023/09/16 00:24:40;;;;;;;1.60;1.20;;;;;;;19.76;100.00;101724.03;2078951;28;20210;-64
2023/09/16 00:25:40;;;;;;;1.83;1.47;;;;;;;19.80;100.00;101735.16;2075911;28;20829;-64
2023/09/16 00:26:41;;;;;;;2.90;1.47;;;;;;;19.81;100.00;101737.47;2077627;28;20754;-65
2023/09/16 00:27:41;;;;;;;1.67;1.40;;;;;;;19.87;100.00;101737.66;2076521;28;20200;-65
2023/09/16 00:28:41;;;;;;;1.80;1.47;;;;;;;19.90;100.00;101734.66;2077920;28;20185;-65
2023/09/16 00:29:42;;;;;;;2.30;1.57;;;;;;;19.92;100.00;101726.56;2076216;28;20761;-65
2023/09/16 00:30:48;;;;;;;1.93;1.60;;;;;;;19.93;100.00;101733.75;2076658;28;20176;-65
2023/09/16 00:31:48;;;;;;;2.53;2.13;;;;;;;19.98;100.00;101735.91;2077807;28;20197;-65
2023/09/16 00:32:49;;;;;;;3.73;1.57;;;;;;;19.54;100.00;101666.41;2070047;28;20424;-65
2023/09/16 00:33:49;;;;;;;1.30;1.13;;;;;;;19.97;100.00;101734.38;2076859;28;20197;-65
2023/09/16 00:34:51;;;;;;;2.00;1.40;;;;;;;19.96;100.00;101726.38;2077448;28;20679;-65
2023/09/16 00:35:51;;;;;;;1.57;1.20;;;;;;;20.04;100.00;101742.47;2077189;28;20197;-65
2023/09/16 00:36:51;;;;;;;1.90;1.23;;;;;;;20.07;100.00;101743.56;2077889;28;20450;-65
2023/09/16 00:37:52;;;;;;;2.13;1.50;;;;;;;20.09;100.00;101744.69;2076447;28;20280;-65
2023/09/16 00:38:52;;;;;;;1.80;1.40;;;;;;;20.11;100.00;101747.03;2077619;28;20184;-65
2023/09/16 00:39:53;;;;;;;1.73;1.23;;;;;;;20.14;100.00;101741.25;2077174;28;20176;-65
2023/09/16 00:40:53;;;;;;;1.70;1.40;;;;;;;20.15;100.00;101745.63;2078304;28;20180;-65
2023/09/16 00:41:54;;;;;;;2.17;1.67;;;;;;;20.04;100.00;101731.22;2077637;28;20201;-65
2023/09/16 00:42:54;;;;;;;1.30;1.20;;;;;;;20.18;100.00;101743.91;2077731;28;20638;-65
2023/09/16 00:43:55;;;;;;;2.30;1.50;;;;;;;20.16;100.00;101749.97;2077549;28;20565;-65
2023/09/16 00:44:55;;;;;;;1.70;1.40;;;;;;;20.18;100.00;101753.13;2077746;28;20644;-65
2023/09/16 00:45:56;;;;;;;1.50;1.13;;;;;;;20.25;100.00;101749.19;2077123;28;20216;-65
2023/09/16 00:46:56;;;;;;;1.43;1.20;;;;;;;20.14;100.00;101737.63;2076674;28;20177;-65
2023/09/16 00:47:57;;;;;;;2.77;1.47;;;;;;;20.21;100.00;101749.34;2077591;28;20734;-65
2023/09/16 00:48:59;;;;;;;2.17;1.40;;;;;;;18.80;100.00;101517.91;2079381;28;20200;-64
2023/09/16 00:50:00;;;;;;;1.50;1.27;;;;;;;20.25;100.00;101741.53;2078474;28;20639;-64
2023/09/16 00:51:00;;;;;;;2.13;1.40;;;;;;;20.28;100.00;101742.63;2079107;28;20451;-64
2023/09/16 00:52:02;;;;;;;1.50;1.40;;;;;;;20.28;100.00;101740.59;2078714;28;20272;-65
2023/09/16 00:53:03;;;;;;;1.37;1.20;;;;;;;19.79;100.00;101663.25;2078347;28;20251;-64
2023/09/16 00:54:03;;;;;;;2.00;1.30;;;;;;;19.78;100.00;101659.66;2075156;28;20197;-64
2023/09/16 00:55:04;;;;;;;2.00;1.40;;;;;;;20.34;100.00;101746.34;2073068;28;20186;-64
2023/09/16 00:56:05;;;;;;;2.20;1.47;;;;;;;20.34;100.00;101743.53;2078175;28;20528;-64
2023/09/16 00:57:09;;;;;;;1.90;1.40;;;;;;;20.34;100.00;101740.72;2078712;28;20940;-64
2023/09/16 00:58:11;;;;;;;2.23;1.53;;;;;;;20.36;100.00;101741.81;2070957;28;20260;-64
2023/09/16 00:59:12;;;;;;;1.77;1.43;;;;;;;20.35;100.00;101731.81;2078495;28;20811;-64
2023/09/16 01:00:16;;;;;;;1.13;1.03;;;;;;;20.38;100.00;101746.97;2079157;28;20455;-64
2023/09/16 01:01:17;;;;;;;3.23;1.40;;;;;;;20.07;100.00;101695.72;2078994;28;20727;-64
2023/09/16 01:02:17;;;;;;;2.70;1.50;;;;;;;20.35;100.00;101740.25;2078988;28;20443;-65
2023/09/16 01:03:19;;;;;;;2.00;1.40;;;;;;;20.31;100.00;101728.38;2078984;28;20212;-65
2023/09/16 01:04:21;;;;;;;1.87;1.60;;;;;;;20.24;100.00;101722.28;2078517;28;20181;-65
2023/09/16 01:05:22;;;;;;;1.90;1.40;;;;;;;20.36;100.00;101736.19;2078898;28;20424;-65
2023/09/16 01:06:23;;;;;;;1.90;1.40;;;;;;;20.34;100.00;101738.69;2077879;28;20910;-65
2023/09/16 01:07:24;;;;;;;1.43;1.10;;;;;;;20.36;100.00;101741.81;2077804;28;20191;-65
2023/09/16 01:08:25;;;;;;;2.10;1.43;;;;;;;20.39;100.00;101743.69;2078713;28;20932;-64
2023/09/16 01:09:25;;;;;;;1.90;1.23;;;;;;;20.13;100.00;101699.50;2078690;28;20856;-64
2023/09/16 01:10:25;;;;;;;1.97;1.50;;;;;;;20.38;100.00;101744.97;2078787;28;20230;-65
2023/09/16 01:11:26;;;;;;;2.13;1.43;;;;;;;20.30;100.00;101729.63;2079306;28;20622;-65
2023/09/16 01:12:26;;;;;;;1.43;1.20;;;;;;;20.34;100.00;101744.34;2078868;28;20275;-64
2023/09/16 01:13:27;;;;;;;2.40;1.30;;;;;;;19.72;100.00;101649.53;2078622;28;20197;-65
2023/09/16 01:14:27;;;;;;;1.47;1.10;;;;;;;20.33;100.00;101744.81;2078967;28;20177;-64
2023/09/16 01:15:33;;;;;;;1.90;1.37;;;;;;;19.99;100.00;101709.34;2079293;28;20492;-64
2023/09/16 01:16:59;;;;;;;1.87;1.50;;;;;;;20.29;100.00;101749.81;2070778;28;20170;-64
2023/09/16 01:18:21;;;;;;;1.33;1.17;;;;;;;20.25;100.00;101749.97;2066936;28;20945;-64
2023/09/16 01:19:57;;;;;;;1.50;1.30;;;;;;;20.15;100.00;101758.91;2078931;28;20455;-64
2023/09/16 01:20:59;;;;;;;1.67;1.30;;;;;;;20.08;100.00;101756.41;2078736;28;20236;-65
2023/09/16 01:22:01;;;;;;;1.70;1.30;;;;;;;20.05;100.00;101758.09;2078787;28;20526;-65
2023/09/16 01:23:01;;;;;;;2.27;1.50;;;;;;;20.02;100.00;101764.69;2079020;28;20455;-65
2023/09/16 01:24:25;;;;;;;2.97;1.77;;;;;;;20.00;100.00;101755.16;2079845;28;20443;-65
2023/09/16 01:25:26;;;;;;;1.80;1.40;;;;;;;19.96;100.00;101751.72;2080205;28;20311;-65
2023/09/16 01:26:27;;;;;;;1.57;1.43;;;;;;;20.07;100.00;101766.09;2078958;28;20454;-65
2023/09/16 01:27:27;;;;;;;1.73;1.30;;;;;;;20.07;100.00;101761.25;2078352;28;20447;-65
2023/09/16 01:28:27;;;;;;;2.40;1.60;;;;;;;20.06;100.00;101765.28;2079827;28;20260;-65
2023/09/16 01:29:28;;;;;;;2.47;1.60;;;;;;;20.07;100.00;101763.28;2078879;28;20208;-65
2023/09/16 01:30:35;;;;;;;1.60;1.30;;;;;;;20.06;100.00;101767.34;2079947;28;20180;-65
2023/09/16 01:31:36;;;;;;;1.57;1.30;;;;;;;20.07;100.00;101764.06;2071485;28;20412;-64
2023/09/16 01:33:06;;;;;;;2.97;1.50;;;;;;;19.70;100.00;101697.03;2078976;28;20494;-65
2023/09/16 01:34:15;;;;;;;2.17;1.27;;;;;;;19.79;100.00;101713.88;2071937;28;20480;-64
2023/09/16 01:35:18;;;;;;;3.13;1.43;;;;;;;20.13;100.00;101772.66;2079368;28;21073;-64
2023/09/16 01:36:23;;;;;;;1.80;1.53;;;;;;;20.16;100.00;101768.94;2078824;28;20416;-65
2023/09/16 01:37:25;;;;;;;1.93;1.40;;;;;;;20.12;100.00;101757.81;2078241;28;20392;-64
2023/09/16 01:38:28;;;;;;;1.93;1.30;;;;;;;20.17;100.00;101773.28;2071191;28;20420;-65
2023/09/16 01:39:30;;;;;;;2.63;1.80;;;;;;;20.17;100.00;101764.84;2077425;28;20452;-65
2023/09/16 01:40:32;;;;;;;1.60;1.30;;;;;;;19.89;100.00;101732.31;2079012;28;20879;-65
2023/09/16 01:41:34;;;;;;;1.53;1.00;;;;;;;20.12;100.00;101774.69;2079214;28;20804;-65
2023/09/16 01:42:35;;;;;;;3.77;1.30;;;;;;;20.14;100.00;101777.03;2081339;28;20948;-65
2023/09/16 01:43:37;;;;;;;1.73;1.30;;;;;;;20.17;100.00;101776.88;2083810;28;20972;-65
2023/09/16 01:44:38;;;;;;;1.77;1.40;;;;;;;20.21;100.00;101779.56;2079416;28;20708;-65
2023/09/16 01:45:42;;;;;;;1.90;1.40;;;;;;;20.11;100.00;101764.69;2078956;28;20576;-65
2023/09/16 01:46:43;;;;;;;1.70;1.37;;;;;;;19.92;100.00;101720.13;2078698;28;20722;-65
2023/09/16 01:47:45;;;;;;;1.57;1.20;;;;;;;20.29;100.00;101778.75;2078131;28;20820;-65
2023/09/16 01:48:45;;;;;;;1.27;1.17;;;;;;;20.30;100.00;101779.53;2079827;28;20196;-65
2023/09/16 01:49:45;;;;;;;2.90;1.50;;;;;;;20.32;100.00;101774.97;2078588;28;20483;-65
2023/09/16 01:50:46;;;;;;;1.67;1.20;;;;;;;20.33;100.00;101779.38;2079189;28;20193;-64
2023/09/16 01:51:46;;;;;;;1.33;1.20;;;;;;;19.87;100.00;101709.50;2078714;28;20698;-64
2023/09/16 01:52:47;;;;;;;1.63;1.23;;;;;;;20.28;100.00;101782.03;2078609;28;20447;-65
2023/09/16 01:53:47;;;;;;;1.80;1.40;;;;;;;19.85;100.00;101732.47;2078015;28;20250;-65
2023/09/16 01:54:48;;;;;;;1.60;1.40;;;;;;;20.14;100.00;101791.91;2078150;28;20208;-65
2023/09/16 01:55:48;;;;;;;1.47;1.23;;;;;;;20.08;100.00;101787.38;2079346;28;20616;-65
2023/09/16 01:56:48;;;;;;;1.80;1.40;;;;;;;20.07;100.00;101789.38;2077532;28;20200;-64
2023/09/16 01:57:49;;;;;;;1.67;1.50;;;;;;;20.05;100.00;101791.88;2077423;28;20629;-64
2023/09/16 01:58:49;;;;;;;3.17;1.40;;;;;;;20.05;100.00;101791.09;2078559;28;20275;-64
2023/09/16 01:59:50;;;;;;;2.63;1.37;;;;;;;20.08;100.00;101796.59;2077904;28;21030;-64
2023/09/16 02:00:50;;;;;;;3.83;1.30;;;;;;;20.08;100.00;101795.81;2079153;28;20204;-64
2023/09/16 02:01:50;;;;;;;2.20;1.50;;;;;;;20.08;100.00;101793.00;2078908;28;20563;-64
2023/09/16 02:02:51;;;;;;;1.83;1.37;;;;;;;20.06;100.00;101784.22;2078718;28;20655;-64
2023/09/16 02:03:52;;;;;;;1.90;1.40;;;;;;;20.08;100.00;101785.34;2079216;28;20677;-64
2023/09/16 02:04:52;;;;;;;1.47;1.30;;;;;;;20.02;100.00;101784.38;2078962;28;20189;-64
2023/09/16 02:05:53;;;;;;;2.00;1.33;;;;;;;20.09;100.00;101794.56;2078764;28;20475;-64
2023/09/16 02:06:53;;;;;;;1.57;1.30;;;;;;;19.46;100.00;101691.25;2077901;28;20258;-64
2023/09/16 02:07:54;;;;;;;3.07;1.53;;;;;;;20.09;100.00;101798.16;2077870;28;20194;-64
2023/09/16 02:08:54;;;;;;;1.53;1.27;;;;;;;20.08;100.00;101793.00;2078596;28;20199;-64
2023/09/16 02:09:54;;;;;;;1.70;1.23;;;;;;;20.10;100.00;101793.28;2078181;28;20238;-64
2023/09/16 02:10:55;;;;;;;1.43;1.10;;;;;;;20.07;100.00;101786.56;2078602;28;20558;-64
2023/09/16 02:11:55;;;;;;;2.03;1.40;;;;;;;20.08;100.00;101785.34;2079129;28;20942;-65
2023/09/16 02:12:55;;;;;;;1.73;1.33;;;;;;;20.16;100.00;101791.44;2079357;28;20559;-64
2023/09/16 02:13:57;;;;;;;1.33;1.20;;;;;;;20.19;100.00;101801.75;2078873;28;20624;-64
2023/09/16 02:14:58;;;;;;;2.80;1.47;;;;;;;20.21;100.00;101796.44;2078921;28;20274;-64
2023/09/16 02:15:59;;;;;;;1.37;1.07;;;;;;;20.23;100.00;101791.91;2078529;28;20533;-64
2023/09/16 02:17:00;;;;;;;2.37;1.70;;;;;;;20.02;100.00;101775.16;2077935;28;20193;-64
2023/09/16 02:18:00;;;;;;;2.00;1.27;;;;;;;20.20;100.00;101792.84;2078471;28;20432;-64
2023/09/16 02:19:00;;;;;;;1.60;1.30;;;;;;;20.13;100.00;101804.41;2078436;28;20189;-64
2023/09/16 02:20:01;;;;;;;1.27;1.17;;;;;;;20.13;100.00;101806.44;2078892;28;20189;-64
2023/09/16 02:21:01;;;;;;;1.57;1.27;;;;;;;20.13;100.00;101810.03;2077819;28;20706;-64
2023/09/16 02:22:02;;;;;;;1.77;1.47;;;;;;;20.14;100.00;101800.34;2077879;28;20254;-64
2023/09/16 02:23:03;;;;;;;1.70;1.50;;;;;;;20.14;100.00;101810.81;2077271;28;20228;-64
2023/09/16 02:24:04;;;;;;;2.80;1.53;;;;;;;20.14;100.00;101800.34;2078463;28;20193;-65
2023/09/16 02:25:05;;;;;;;1.63;1.33;;;;;;;20.16;100.00;101794.25;2080312;28;20482;-65
2023/09/16 02:26:05;;;;;;;2.60;1.50;;;;;;;20.16;100.00;101795.03;2078265;28;20423;-65
2023/09/16 02:27:06;;;;;;;2.13;1.60;;;;;;;20.10;100.00;101801.75;2077414;28;20589;-65
2023/09/16 02:28:06;;;;;;;2.20;1.40;;;;;;;20.11;100.00;101803.31;2078007;28;20181;-65
2023/09/16 02:29:07;;;;;;;2.27;1.30;;;;;;;20.03;100.00;101804.84;2078443;28;20184;-65
2023/09/16 02:30:07;;;;;;;3.43;1.60;;;;;;;20.04;100.00;101800.78;2077739;28;20197;-65
2023/09/16 02:31:10;;;;;;;1.97;1.43;;;;;;;20.03;100.00;101802.81;2078622;28;20231;-65
2023/09/16 02:32:11;;;;;;;2.53;1.53;;;;;;;20.05;100.00;101803.13;2078177;28;20188;-65
2023/09/16 02:33:11;;;;;;;1.93;1.40;;;;;;;20.07;100.00;101805.47;2078458;28;20486;-65
2023/09/16 02:34:12;;;;;;;1.70;1.30;;;;;;;20.08;100.00;101799.41;2078276;28;20237;-65
2023/09/16 02:35:12;;;;;;;3.67;1.43;;;;;;;20.11;100.00;101795.66;2078290;28;20268;-65
2023/09/16 02:36:13;;;;;;;1.80;1.30;;;;;;;20.11;100.00;101800.50;2078094;28;20189;-65
2023/09/16 02:37:13;;;;;;;1.50;1.10;;;;;;;20.10;100.00;101793.28;2078741;28;20192;-64
2023/09/16 02:38:13;;;;;;;2.03;1.50;;;;;;;20.06;100.00;101796.25;2077815;28;20196;-64
2023/09/16 02:39:14;;;;;;;2.07;1.37;;;;;;;19.65;100.00;101734.22;2077917;28;20199;-64
2023/09/16 02:40:14;;;;;;;2.00;1.30;;;;;;;20.01;100.00;101798.91;2077294;28;20207;-64
2023/09/16 02:41:17;;;;;;;1.83;1.33;;;;;;;20.01;100.00;101791.25;2076952;28;20218;-65
2023/09/16 02:42:18;;;;;;;1.83;1.53;;;;;;;19.66;100.00;101744.22;2076873;28;20201;-65
2023/09/16 02:43:18;;;;;;;2.73;1.53;;;;;;;19.91;100.00;101791.72;2078068;28;20460;-65
2023/09/16 02:44:18;;;;;;;2.00;1.37;;;;;;;19.87;100.00;101791.09;2077680;28;20185;-65
2023/09/16 02:45:19;;;;;;;2.17;1.53;;;;;;;19.84;100.00;101794.81;2078615;28;20184;-65
2023/09/16 02:46:19;;;;;;;1.70;1.23;;;;;;;19.82;100.00;101794.53;2078200;28;20681;-65
2023/09/16 02:47:20;;;;;;;2.00;1.33;;;;;;;19.79;100.00;101785.00;2077459;28;20254;-65
2023/09/16 02:48:20;;;;;;;2.30;1.40;;;;;;;19.77;100.00;101793.13;2077884;28;20605;-65
2023/09/16 02:49:21;;;;;;;2.03;1.43;;;;;;;19.77;100.00;101790.31;2078014;28;20872;-65
2023/09/16 02:50:21;;;;;;;1.80;1.40;;;;;;;19.78;100.00;101793.91;2077323;28;20503;-65
2023/09/16 02:51:22;;;;;;;2.37;1.40;;;;;;;19.73;100.00;101800.13;2078271;28;20201;-65
2023/09/16 02:52:22;;;;;;;1.80;1.50;;;;;;;19.67;100.00;101794.38;2078000;28;20189;-65
2023/09/16 02:53:23;;;;;;;1.70;1.40;;;;;;;19.69;100.00;101800.28;2078689;28;20267;-65
2023/09/16 02:54:23;;;;;;;1.60;1.40;;;;;;;19.58;100.00;101779.50;2078408;28;20362;-65
2023/09/16 02:55:24;;;;;;;2.73;1.37;;;;;;;19.71;100.00;101797.78;2078356;28;20293;-65
2023/09/16 02:56:25;;;;;;;4.60;1.47;;;;;;;19.54;100.00;101768.41;2078010;28;20203;-65
2023/09/16 02:57:25;;;;;;;1.80;1.27;;;;;;;19.79;100.00;101799.06;2076946;28;20458;-65
2023/09/16 02:58:26;;;;;;;1.63;1.43;;;;;;;19.57;100.00;101761.84;2077959;28;20254;-65
2023/09/16 02:59:26;;;;;;;1.60;1.30;;;;;;;19.76;100.00;101799.97;2077942;28;20173;-65
2023/09/16 03:00:26;;;;;;;1.57;1.40;;;;;;;19.78;100.00;101793.91;2077900;28;20176;-65
2023/09/16 03:01:27;;;;;;;1.60;1.40;;;;;;;19.81;100.00;101792.97;2078732;28;20252;-65
2023/09/16 03:02:27;;;;;;;2.60;1.47;;;;;;;19.86;100.00;101792.34;2078169;28;20255;-65
2023/09/16 03:03:28;;;;;;;2.20;1.33;;;;;;;19.80;100.00;101780.16;2078251;28;20185;-65
2023/09/16 03:04:29;;;;;;;2.20;1.40;;;;;;;19.95;100.00;101800.81;2078281;28;20224;-65
2023/09/16 03:05:29;;;;;;;2.73;1.57;;;;;;;19.96;100.00;101805.94;2078043;28;20458;-65
2023/09/16 03:06:30;;;;;;;1.73;1.43;;;;;;;20.00;100.00;101811.44;2077900;28;20192;-65
2023/09/16 03:07:30;;;;;;;2.00;1.30;;;;;;;20.01;100.00;101808.13;2076862;28;20260;-65
2023/09/16 03:08:31;;;;;;;2.77;1.30;;;;;;;20.07;100.00;101811.09;2082372;28;20180;-65
2023/09/16 03:09:31;;;;;;;2.23;1.33;;;;;;;20.11;100.00;101812.53;2078086;28;20208;-65
2023/09/16 03:10:34;;;;;;;1.80;1.17;;;;;;;20.10;100.00;101810.97;2077554;28;20196;-65
2023/09/16 03:11:38;;;;;;;2.07;1.50;;;;;;;19.87;100.00;101755.31;2077202;28;20203;-65
2023/09/16 03:12:38;;;;;;;1.50;1.20;;;;;;;20.19;100.00;101807.38;2078223;28;20922;-65
2023/09/16 03:13:38;;;;;;;2.57;1.70;;;;;;;20.20;100.00;101808.94;2078105;28;20454;-65
2023/09/16 03:14:39;;;;;;;2.43;1.47;;;;;;;20.21;100.00;101811.28;2077775;28;20202;-65
2023/09/16 03:15:46;;;;;;;1.70;1.10;;;;;;;20.22;100.00;101815.66;2078211;28;20200;-65
2023/09/16 03:16:46;;;;;;;3.57;1.47;;;;;;;20.25;100.00;101813.94;2077700;28;20228;-65
2023/09/16 03:17:47;;;;;;;2.30;1.40;;;;;;;20.25;100.00;101808.28;2077057;28;21011;-65
2023/09/16 03:18:52;;;;;;;1.63;1.13;;;;;;;20.31;100.00;101812.06;2077866;28;20250;-65
2023/09/16 03:19:52;;;;;;;1.43;1.30;;;;;;;20.34;100.00;101816.75;2069756;28;20188;-65
2023/09/16 03:20:53;;;;;;;2.40;1.50;;;;;;;20.24;100.00;101801.91;2077208;28;20530;-65
2023/09/16 03:21:54;;;;;;;2.17;1.10;;;;;;;20.35;100.00;101810.66;2077947;28;20219;-65
2023/09/16 03:22:54;;;;;;;3.00;1.40;;;;;;;20.36;100.00;101812.19;2078154;28;20233;-65
2023/09/16 03:23:55;;;;;;;2.03;1.53;;;;;;;20.38;100.00;101808.91;2077955;28;20764;-65
2023/09/16 03:24:55;;;;;;;1.53;1.33;;;;;;;20.36;100.00;101811.44;2080306;28;20189;-65
2023/09/16 03:25:55;;;;;;;2.23;1.63;;;;;;;20.36;100.00;101808.63;2078996;28;20579;-65
2023/09/16 03:26:56;;;;;;;1.20;1.10;;;;;;;20.22;100.00;101787.50;2077017;28;20705;-65
2023/09/16 03:27:56;;;;;;;2.43;1.73;;;;;;;20.39;100.00;101805.63;2078243;28;20620;-65
2023/09/16 03:28:57;;;;;;;2.10;1.50;;;;;;;20.39;100.00;101811.28;2080324;28;20732;-64
2023/09/16 03:29:57;;;;;;;1.47;1.27;;;;;;;20.41;100.00;101805.94;2079952;28;20208;-64
2023/09/16 03:30:58;;;;;;;1.50;1.40;;;;;;;20.41;100.00;101808.75;2079709;28;20252;-64
2023/09/16 03:31:58;;;;;;;3.43;1.40;;;;;;;20.42;100.00;101818.75;2078956;28;20227;-65
2023/09/16 03:32:58;;;;;;;1.50;1.40;;;;;;;20.42;100.00;101812.38;2078460;28;20212;-65
2023/09/16 03:33:59;;;;;;;2.53;1.67;;;;;;;20.35;100.00;101802.19;2078481;28;20187;-65
2023/09/16 03:34:59;;;;;;;2.77;1.40;;;;;;;20.43;100.00;101811.09;2077883;28;20255;-65
2023/09/16 03:35:59;;;;;;;3.53;1.57;;;;;;;20.42;100.00;101807.50;2078922;28;20173;-65
2023/09/16 03:37:00;;;;;;;2.47;1.50;;;;;;;20.43;100.00;101813.91;2077702;28;20634;-65
2023/09/16 03:38:00;;;;;;;1.93;1.50;;;;;;;20.44;100.00;101810.63;2077727;28;20192;-65
2023/09/16 03:39:01;;;;;;;2.93;2.20;;;;;;;20.30;100.00;101782.34;2077352;28;20270;-65
2023/09/16 03:40:01;;;;;;;3.57;1.97;;;;;;;20.42;100.00;101807.50;2076264;28;20201;-65
2023/09/16 03:41:02;;;;;;;2.63;1.97;;;;;;;20.07;100.00;101750.00;2078276;28;20193;-65
2023/09/16 03:42:03;;;;;;;2.20;2.00;;;;;;;20.45;100.00;101814.22;2077486;28;20575;-65
2023/09/16 03:43:04;;;;;;;2.30;1.60;;;;;;;20.43;100.00;101811.09;2078285;28;20205;-65
2023/09/16 03:44:04;;;;;;;4.47;2.07;;;;;;;20.29;100.00;101801.28;2086243;28;20271;-65
2023/09/16 03:45:05;;;;;;;3.43;1.97;;;;;;;20.36;100.00;101809.38;2078694;28;20197;-65
2023/09/16 03:46:05;;;;;;;2.07;1.70;;;;;;;20.38;100.00;101808.91;2077827;28;20331;-65
2023/09/16 03:47:07;;;;;;;2.57;1.90;;;;;;;20.37;100.00;101810.94;2077484;28;20251;-65
2023/09/16 03:48:08;;;;;;;2.07;1.77;;;;;;;20.39;100.00;101813.28;2077732;28;20234;-65
2023/09/16 03:49:08;;;;;;;4.07;2.27;;;;;;;20.41;100.00;101810.81;2078222;28;20489;-65
2023/09/16 03:50:09;;;;;;;3.90;2.07;;;;;;;20.30;100.00;101793.59;2077446;28;20272;-64
2023/09/16 03:51:09;;;;;;;3.27;2.23;;;;;;;19.80;100.00;101712.66;2077279;28;20185;-64
2023/09/16 03:52:10;;;;;;;3.00;2.10;;;;;;;20.41;100.00;101817.19;2068838;28;20241;-64
2023/09/16 03:53:10;;;;;;;4.17;2.60;;;;;;;20.36;100.00;101803.00;2070032;28;20811;-64
2023/09/16 03:54:12;;;;;;;2.97;2.00;;;;;;;20.42;100.00;101812.38;2078050;28;20254;-64
2023/09/16 03:55:13;;;;;;;4.33;2.57;;;;;;;20.42;100.00;101812.38;2078137;28;20548;-64
2023/09/16 03:56:14;;;;;;;3.23;2.10;;;;;;;20.42;100.00;101809.53;2077803;28;20578;-65
2023/09/16 03:57:14;;;;;;;2.47;1.90;;;;;;;20.43;100.00;101805.47;2077156;28;20204;-65
2023/09/16 03:58:14;;;;;;;2.13;1.80;;;;;;;20.42;100.00;101812.38;2077470;28;20193;-65
2023/09/16 03:59:15;;;;;;;2.17;1.90;;;;;;;20.43;100.00;101819.56;2077977;28;20213;-64
2023/09/16 04:00:15;;;;;;;2.27;1.60;;;;;;;20.43;100.00;101813.91;2077447;28;20267;-64
2023/09/16 04:01:16;;;;;;;2.77;2.30;;;;;;;20.42;100.00;101815.19;2074285;28;20189;-64
2023/09/16 04:02:17;;;;;;;3.47;2.00;;;;;;;20.40;100.00;101818.47;2076929;28;20242;-64
2023/09/16 04:03:17;;;;;;;5.07;2.10;;;;;;;20.38;100.00;101811.75;2078118;28;20196;-64
2023/09/16 04:04:18;;;;;;;2.43;1.50;;;;;;;20.05;100.00;101777.03;2077871;28;20283;-64
2023/09/16 04:05:19;;;;;;;2.73;1.70;;;;;;;20.31;100.00;101812.06;2078167;28;20200;-64
2023/09/16 04:06:20;;;;;;;2.30;1.50;;;;;;;20.36;100.00;101817.06;2075491;28;20439;-64
2023/09/16 04:07:21;;;;;;;2.20;1.57;;;;;;;20.42;100.00;101823.63;2068924;28;20565;-64
2023/09/16 04:08:21;;;;;;;2.67;1.97;;;;;;;20.00;100.00;101763.59;2070663;28;20186;-64
2023/09/16 04:09:22;;;;;;;1.70;1.43;;;;;;;20.41;100.00;101824.88;2078322;28;20247;-64
2023/09/16 04:10:22;;;;;;;2.37;1.73;;;;;;;20.40;100.00;101829.72;2077218;28;20185;-65
2023/09/16 04:11:23;;;;;;;2.00;1.50;;;;;;;20.39;100.00;101828.16;2078304;28;20191;-65
2023/09/16 04:12:24;;;;;;;2.20;1.57;;;;;;;20.39;100.00;101828.16;2077365;28;20224;-65
2023/09/16 04:13:24;;;;;;;2.17;1.60;;;;;;;19.84;100.00;101742.19;2076895;28;20274;-65
2023/09/16 04:14:25;;;;;;;2.27;1.63;;;;;;;20.41;100.00;101830.50;2078877;28;20188;-65
2023/09/16 04:15:25;;;;;;;2.93;1.87;;;;;;;20.41;100.00;101827.69;2078080;28;20195;-65
2023/09/16 04:16:25;;;;;;;2.70;1.60;;;;;;;20.41;100.00;101830.50;2077608;28;20227;-65
2023/09/16 04:17:27;;;;;;;1.63;1.50;;;;;;;20.34;100.00;101817.53;2076692;28;20193;-65
2023/09/16 04:18:29;;;;;;;2.50;1.80;;;;;;;20.04;100.00;101783.91;2077636;28;20252;-65
2023/09/16 04:19:29;;;;;;;2.37;1.70;;;;;;;20.37;100.00;101833.47;2077511;28;20447;-65
2023/09/16 04:20:29;;;;;;;3.03;1.70;;;;;;;20.37;100.00;101833.47;2077796;28;20424;-65
2023/09/16 04:21:30;;;;;;;2.07;1.33;;;;;;;20.39;100.00;101830.97;2078547;28;20212;-65
2023/09/16 04:22:30;;;;;;;5.23;1.70;;;;;;;20.40;100.00;101837.38;2077804;28;20197;-65
2023/09/16 04:23:31;;;;;;;2.33;1.60;;;;;;;20.40;100.00;101829.72;2079847;28;20200;-65
2023/09/16 04:24:31;;;;;;;1.70;1.40;;;;;;;20.40;100.00;101829.72;2079508;28;20201;-65
2023/09/16 04:25:32;;;;;;;1.97;1.47;;;;;;;20.40;100.00;101838.16;2081827;28;20188;-65
2023/09/16 04:26:32;;;;;;;2.53;1.60;;;;;;;20.40;100.00;101835.34;2084678;28;22171;-65
2023/09/16 04:27:32;;;;;;;3.77;1.63;;;;;;;19.92;100.00;101756.72;2078854;28;20212;-65
2023/09/16 04:28:33;;;;;;;2.87;1.43;;;;;;;20.33;100.00;101824.44;2078987;28;20184;-65
2023/09/16 04:29:33;;;;;;;1.87;1.60;;;;;;;20.32;100.00;101825.66;2079063;28;20211;-65
2023/09/16 04:30:48;;;;;;;2.07;1.50;;;;;;;20.39;100.00;101838.63;2079413;28;20279;-65
2023/09/16 04:31:51;;;;;;;2.17;1.67;;;;;;;20.37;100.00;101838.34;2079299;28;20622;-65
2023/09/16 04:32:51;;;;;;;2.43;1.60;;;;;;;20.19;100.00;101813.00;2078663;28;20513;-65
2023/09/16 04:33:52;;;;;;;2.50;1.87;;;;;;;20.42;100.00;101844.09;2079837;28;20451;-65
2023/09/16 04:34:57;;;;;;;2.03;1.63;;;;;;;20.44;100.00;101843.63;2079593;28;20185;-65
2023/09/16 04:35:59;;;;;;;2.67;2.00;;;;;;;19.89;100.00;101761.25;2079162;28;20223;-64
2023/09/16 04:37:00;;;;;;;1.73;1.50;;;;;;;20.43;100.00;101853.34;2078562;28;20535;-65
2023/09/16 04:38:00;;;;;;;2.33;1.73;;;;;;;20.40;100.00;101851.44;2079402;28;20450;-65
2023/09/16 04:39:00;;;;;;;2.60;1.63;;;;;;;20.45;100.00;101857.25;2079059;28;20251;-65
2023/09/16 04:40:04;;;;;;;2.10;1.80;;;;;;;20.48;100.00;101863.97;2079253;28;20267;-65
2023/09/16 04:41:05;;;;;;;2.33;2.03;;;;;;;20.46;100.00;101858.81;2071536;28;20193;-65
2023/09/16 04:42:05;;;;;;;2.10;1.63;;;;;;;20.34;100.00;101842.06;2077793;28;20564;-65